Time;durP1;ratioP1;P1;durP2;ratioP2;P2;SDS_P1;SDS_P2;PMS_P1;PMS_P2;Temp;Humidity;BMP_temperature;BMP_pressure;BME280_temperature;BME280_humidity;BME280_pressure;Samples;Min_cycle;Max_cycle;Signal;HPM_P1;HPM_P2
2021/05/27 00:01:14;;;;;;;3.30;3.07;;;10.70;99.90;;;;;;5112126;28;20221;-74
2021/05/27 00:03:40;;;;;;;5.00;3.50;;;10.60;99.90;;;;;;5112089;28;20635;-74
2021/05/27 00:06:05;;;;;;;3.60;2.93;;;10.60;99.90;;;;;;5106172;28;20177;-74
2021/05/27 00:08:31;;;;;;;3.20;3.00;;;10.60;99.90;;;;;;5092041;28;20399;-75
2021/05/27 00:10:56;;;;;;;4.60;3.23;;;10.60;99.90;;;;;;5077865;28;20174;-74
2021/05/27 00:13:22;;;;;;;3.73;3.17;;;10.50;99.90;;;;;;5071192;28;20205;-74
2021/05/27 00:15:47;;;;;;;3.37;3.07;;;10.50;99.90;;;;;;5071245;28;20159;-74
2021/05/27 00:18:13;;;;;;;3.70;3.40;;;10.40;99.90;;;;;;5071036;28;20162;-74
2021/05/27 00:20:39;;;;;;;4.10;3.70;;;10.40;99.90;;;;;;5071092;28;20162;-74
2021/05/27 00:23:04;;;;;;;6.10;3.80;;;10.40;99.90;;;;;;5087131;28;20419;-74
2021/05/27 00:25:30;;;;;;;3.20;2.97;;;10.40;99.90;;;;;;5091673;28;20167;-74
2021/05/27 00:27:56;;;;;;;3.40;3.17;;;10.40;99.90;;;;;;5091057;28;20219;-74
2021/05/27 00:30:21;;;;;;;3.30;2.87;;;10.30;99.90;;;;;;5098994;28;20545;-74
2021/05/27 00:32:48;;;;;;;3.40;3.10;;;10.30;99.90;;;;;;5095179;28;20401;-74
2021/05/27 00:35:14;;;;;;;3.20;3.00;;;10.30;99.90;;;;;;5095169;28;20175;-74
2021/05/27 00:37:40;;;;;;;3.20;3.00;;;10.30;99.90;;;;;;5094962;28;20392;-73
2021/05/27 00:40:09;;;;;;;4.30;4.00;;;10.30;99.90;;;;;;5094851;28;20611;-74
2021/05/27 00:42:34;;;;;;;3.47;3.20;;;10.30;99.90;;;;;;5094706;28;20785;-74
2021/05/27 00:45:20;;;;;;;4.13;3.83;;;10.20;99.90;;;;;;5094968;28;20405;-74
2021/05/27 00:47:46;;;;;;;3.80;3.50;;;10.10;99.90;;;;;;5094600;28;20205;-74
2021/05/27 00:50:21;;;;;;;3.73;3.40;;;10.10;99.90;;;;;;5094747;28;20903;-74
2021/05/27 00:52:48;;;;;;;4.17;3.87;;;10.00;99.90;;;;;;5094533;28;20423;-73
2021/05/27 00:55:15;;;;;;;4.10;3.80;;;10.00;99.90;;;;;;5094714;28;20408;-73
2021/05/27 00:57:40;;;;;;;4.80;4.30;;;10.00;99.90;;;;;;5097179;28;20426;-74
2021/05/27 01:00:12;;;;;;;5.37;4.60;;;10.00;99.90;;;;;;5114896;28;20422;-73
2021/05/27 01:02:38;;;;;;;4.53;4.17;;;10.00;99.90;;;;;;5099867;28;20264;-73
2021/05/27 01:05:06;;;;;;;6.17;5.10;;;10.00;99.90;;;;;;5074253;28;20412;-73
2021/05/27 01:07:32;;;;;;;6.33;4.27;;;10.00;99.90;;;;;;5091747;28;20427;-73
2021/05/27 01:09:58;;;;;;;6.10;4.47;;;9.90;99.90;;;;;;5088948;28;20436;-73
2021/05/27 01:12:24;;;;;;;4.53;4.20;;;9.90;99.90;;;;;;5074608;28;20189;-73
2021/05/27 01:17:36;;;;;;;5.00;4.50;;;9.80;99.90;;;;;;5074014;28;20820;-73
2021/05/27 01:20:03;;;;;;;4.57;4.17;;;9.70;99.90;;;;;;5074054;28;20854;-74
2021/05/27 01:22:29;;;;;;;4.77;4.27;;;9.70;99.90;;;;;;5085254;28;20441;-73
2021/05/27 01:24:54;;;;;;;5.10;4.67;;;9.70;99.90;;;;;;5094624;28;20469;-73
2021/05/27 01:27:20;;;;;;;4.43;4.00;;;9.80;99.90;;;;;;5094210;28;20180;-74
2021/05/27 01:29:52;;;;;;;5.53;4.30;;;9.80;99.90;;;;;;5083955;28;20669;-73
2021/05/27 01:32:18;;;;;;;3.73;3.40;;;9.80;99.90;;;;;;5077930;28;20645;-73
2021/05/27 01:34:44;;;;;;;3.70;3.40;;;9.80;99.90;;;;;;5093972;28;21035;-73
2021/05/27 01:37:09;;;;;;;4.80;4.27;;;9.80;99.90;;;;;;5082174;28;20428;-73
2021/05/27 01:39:36;;;;;;;4.63;3.90;;;9.70;99.90;;;;;;5073949;28;20232;-75
2021/05/27 01:42:02;;;;;;;5.70;4.07;;;9.70;99.90;;;;;;5073032;28;20633;-73
2021/05/27 01:44:28;;;;;;;4.33;4.03;;;9.70;99.90;;;;;;5073019;28;20802;-74
2021/05/27 01:46:53;;;;;;;4.50;4.10;;;9.70;99.90;;;;;;5075277;28;20537;-73
2021/05/27 01:49:19;;;;;;;5.30;4.73;;;9.70;99.90;;;;;;5093563;28;20181;-74
2021/05/27 01:51:50;;;;;;;4.60;4.20;;;9.60;99.90;;;;;;5093472;28;20256;-74
2021/05/27 01:54:17;;;;;;;7.47;4.30;;;9.70;99.90;;;;;;5093371;28;20227;-74
2021/05/27 01:56:43;;;;;;;4.93;4.50;;;9.70;99.90;;;;;;5093326;28;20746;-74
2021/05/27 01:59:09;;;;;;;4.93;4.20;;;9.70;99.90;;;;;;5108358;28;20439;-74
2021/05/27 02:01:34;;;;;;;4.27;3.87;;;9.70;99.90;;;;;;5113588;28;20901;-74
2021/05/27 02:04:01;;;;;;;4.83;4.33;;;9.70;99.90;;;;;;5113769;28;20576;-74
2021/05/27 02:06:27;;;;;;;4.83;4.43;;;9.60;99.90;;;;;;5104580;28;20404;-74
2021/05/27 02:09:09;;;;;;;8.60;4.00;;;9.60;99.90;;;;;;5093150;28;20602;-74
2021/05/27 02:11:39;;;;;;;5.30;4.80;;;9.60;99.90;;;;;;5074047;28;20182;-74
2021/05/27 02:14:06;;;;;;;4.73;4.33;;;9.50;99.90;;;;;;5072939;28;20490;-74
2021/05/27 02:16:33;;;;;;;4.17;3.87;;;9.50;99.90;;;;;;5072685;28;20462;-74
2021/05/27 02:18:59;;;;;;;4.50;4.10;;;9.40;99.90;;;;;;5072713;28;20431;-74
2021/05/27 02:21:25;;;;;;;5.37;4.87;;;9.40;99.90;;;;;;5072677;28;20794;-74
2021/05/27 02:23:55;;;;;;;4.60;4.20;;;9.50;99.90;;;;;;5072632;28;20179;-74
2021/05/27 02:26:21;;;;;;;5.10;4.70;;;9.50;99.90;;;;;;5072381;28;20167;-73
2021/05/27 02:28:47;;;;;;;5.20;4.80;;;9.40;99.90;;;;;;5072507;28;20439;-75
2021/05/27 02:31:13;;;;;;;6.40;4.87;;;9.40;99.90;;;;;;5072607;28;20210;-75
2021/05/27 02:33:38;;;;;;;5.93;5.13;;;9.40;99.90;;;;;;5072471;28;20487;-74
2021/05/27 02:36:04;;;;;;;5.20;4.80;;;9.40;99.90;;;;;;5072402;28;20822;-74
2021/05/27 02:38:30;;;;;;;5.87;5.37;;;9.40;99.90;;;;;;5090194;28;20200;-75
2021/05/27 02:40:55;;;;;;;6.30;5.70;;;9.40;99.90;;;;;;5092542;28;20407;-74
2021/05/27 02:43:21;;;;;;;5.37;4.87;;;9.40;99.90;;;;;;5092688;28;20204;-74
2021/05/27 02:45:46;;;;;;;9.20;4.90;;;9.50;99.90;;;;;;5092533;28;20176;-75
2021/05/27 02:48:12;;;;;;;11.00;5.67;;;9.50;99.90;;;;;;5092296;28;20178;-74
2021/05/27 02:50:37;;;;;;;6.57;5.83;;;9.50;99.90;;;;;;5092406;28;20383;-74
2021/05/27 02:53:03;;;;;;;5.77;5.27;;;9.50;99.90;;;;;;5092205;28;20542;-74
2021/05/27 02:55:28;;;;;;;4.87;4.47;;;9.60;99.90;;;;;;5092175;28;20165;-74
2021/05/27 02:57:54;;;;;;;6.47;5.53;;;9.60;99.90;;;;;;5092291;28;20193;-74
2021/05/27 03:00:19;;;;;;;7.50;6.17;;;9.60;99.90;;;;;;5092289;28;20269;-74
2021/05/27 03:02:45;;;;;;;6.00;5.40;;;9.60;99.90;;;;;;5092484;28;20187;-74
2021/05/27 03:05:11;;;;;;;6.23;5.63;;;9.60;99.90;;;;;;5092237;28;20531;-74
2021/05/27 03:07:36;;;;;;;5.10;4.70;;;9.60;99.90;;;;;;5100316;28;20188;-74
2021/05/27 03:10:02;;;;;;;5.87;5.37;;;9.60;99.90;;;;;;5099956;28;20432;-74
2021/05/27 03:12:28;;;;;;;5.87;5.30;;;9.60;99.90;;;;;;5091992;28;20175;-74
2021/05/27 03:14:53;;;;;;;6.13;5.50;;;9.60;99.90;;;;;;5092105;28;20958;-75
2021/05/27 03:17:19;;;;;;;5.80;5.20;;;9.60;99.90;;;;;;5091929;28;20167;-75
2021/05/27 03:19:44;;;;;;;5.87;5.40;;;9.60;99.90;;;;;;5092016;28;20182;-75
2021/05/27 03:22:10;;;;;;;6.30;5.40;;;9.60;99.90;;;;;;5091870;28;20166;-74
2021/05/27 03:24:35;;;;;;;6.47;5.90;;;9.60;99.90;;;;;;5092167;28;20212;-74
2021/05/27 03:27:01;;;;;;;5.90;5.30;;;9.60;99.90;;;;;;5092457;28;20173;-75
2021/05/27 03:29:26;;;;;;;6.10;5.60;;;9.60;99.90;;;;;;5092490;28;20197;-74
2021/05/27 03:31:52;;;;;;;5.47;4.97;;;9.70;99.90;;;;;;5091986;28;20173;-74
2021/05/27 03:34:17;;;;;;;8.53;5.20;;;9.70;99.90;;;;;;5091782;28;20194;-74
2021/05/27 03:36:43;;;;;;;7.73;5.97;;;9.80;99.90;;;;;;5091523;28;20177;-74
2021/05/27 03:39:08;;;;;;;6.10;5.50;;;9.80;99.90;;;;;;5092064;28;20590;-74
2021/05/27 03:41:34;;;;;;;5.50;5.10;;;9.90;99.90;;;;;;5091735;28;20166;-74
2021/05/27 03:43:59;;;;;;;5.60;4.93;;;9.90;99.90;;;;;;5091844;28;20541;-73
2021/05/27 03:46:25;;;;;;;5.00;4.60;;;10.00;99.90;;;;;;5091510;28;20298;-74
2021/05/27 03:48:50;;;;;;;7.10;4.97;;;10.00;99.90;;;;;;5091727;28;20191;-74
2021/05/27 03:51:16;;;;;;;4.77;4.27;;;9.90;99.90;;;;;;5091713;28;20165;-74
2021/05/27 03:53:42;;;;;;;5.50;5.00;;;10.00;99.90;;;;;;5091847;28;20205;-75
2021/05/27 03:56:08;;;;;;;5.87;5.30;;;10.00;99.90;;;;;;5092232;28;20400;-75
2021/05/27 04:01:17;;;;;;;9.17;5.20;;;10.00;99.90;;;;;;5092022;28;20426;-75
2021/05/27 04:09:12;;;;;;;6.53;5.20;;;10.20;99.90;;;;;;5097995;28;20459;-75
2021/05/27 04:11:38;;;;;;;7.20;4.43;;;10.20;99.90;;;;;;5097491;28;20918;-74
2021/05/27 04:14:03;;;;;;;4.90;4.40;;;10.20;99.90;;;;;;5096950;28;20194;-75
2021/05/27 04:16:29;;;;;;;5.47;4.97;;;10.20;99.90;;;;;;5096676;28;20169;-74
2021/05/27 04:18:55;;;;;;;5.40;4.90;;;10.20;99.90;;;;;;5095856;28;20196;-74
2021/05/27 04:21:20;;;;;;;4.80;4.40;;;10.20;99.90;;;;;;5095662;28;20252;-74
2021/05/27 04:23:46;;;;;;;5.43;4.93;;;10.20;99.90;;;;;;5095369;28;20172;-74
2021/05/27 04:26:13;;;;;;;5.80;4.50;;;10.30;99.90;;;;;;5095287;28;20185;-74
2021/05/27 04:28:40;;;;;;;6.87;5.53;;;10.30;99.90;;;;;;5095039;28;20190;-75
2021/05/27 04:31:09;;;;;;;5.70;5.30;;;10.30;99.90;;;;;;5095043;28;20487;-74
2021/05/27 04:33:52;;;;;;;5.83;5.33;;;10.30;99.90;;;;;;5095284;28;20865;-74
2021/05/27 04:36:20;;;;;;;8.00;5.57;;;10.30;99.90;;;;;;5094872;28;20641;-74
2021/05/27 04:38:47;;;;;;;5.53;5.07;;;10.30;99.90;;;;;;5094992;28;20465;-74
2021/05/27 04:41:13;;;;;;;7.07;5.40;;;10.40;99.90;;;;;;5095318;28;20486;-74
2021/05/27 04:43:39;;;;;;;6.47;5.40;;;10.40;99.90;;;;;;5097248;28;20754;-74
2021/05/27 04:46:06;;;;;;;7.40;5.37;;;10.40;99.90;;;;;;5106844;28;20441;-74
2021/05/27 04:48:31;;;;;;;5.87;5.27;;;10.40;99.90;;;;;;5115199;28;20430;-74
2021/05/27 04:50:57;;;;;;;6.30;5.40;;;10.40;99.90;;;;;;5115548;28;20490;-74
2021/05/27 04:53:25;;;;;;;5.30;4.73;;;10.40;99.90;;;;;;5115119;28;20215;-74
2021/05/27 04:55:51;;;;;;;6.33;4.83;;;10.40;99.90;;;;;;5115070;28;20403;-74
2021/05/27 04:58:17;;;;;;;5.10;4.70;;;10.50;99.90;;;;;;5114603;28;20945;-74
2021/05/27 05:00:43;;;;;;;7.23;4.90;;;10.60;99.90;;;;;;5114987;28;20398;-74
2021/05/27 05:03:09;;;;;;;5.83;5.30;;;10.60;99.90;;;;;;5114924;28;20234;-74
2021/05/27 05:05:36;;;;;;;5.00;4.60;;;10.80;99.90;;;;;;5115120;28;20893;-74
2021/05/27 05:08:02;;;;;;;5.97;5.37;;;10.80;99.90;;;;;;5114852;28;20251;-74
2021/05/27 05:10:28;;;;;;;5.30;4.53;;;10.70;99.90;;;;;;5085443;28;20454;-74
2021/05/27 05:12:55;;;;;;;5.20;4.70;;;10.80;99.90;;;;;;5092614;28;20403;-74
2021/05/27 05:15:26;;;;;;;4.60;4.20;;;10.80;99.90;;;;;;5092544;28;20171;-74
2021/05/27 05:17:54;;;;;;;5.00;4.70;;;11.00;99.90;;;;;;5093979;28;20783;-74
2021/05/27 05:20:23;;;;;;;6.40;4.33;;;11.50;99.90;;;;;;5093806;28;20412;-74
2021/05/27 05:22:48;;;;;;;4.73;4.20;;;11.50;99.90;;;;;;5094138;28;20392;-74
2021/05/27 05:25:15;;;;;;;6.60;4.00;;;11.80;99.90;;;;;;5093953;28;20410;-75
2021/05/27 05:27:41;;;;;;;4.30;4.00;;;11.80;99.90;;;;;;5093910;28;20470;-74
2021/05/27 05:30:08;;;;;;;3.90;3.60;;;12.00;99.90;;;;;;5093905;28;20427;-75
2021/05/27 05:32:34;;;;;;;5.30;3.87;;;12.30;99.90;;;;;;5093892;28;20833;-75
2021/05/27 05:35:00;;;;;;;4.10;3.70;;;12.20;99.90;;;;;;5093835;28;20530;-75
2021/05/27 05:37:26;;;;;;;3.23;2.93;;;12.20;99.90;;;;;;5102907;28;20165;-75
2021/05/27 05:39:51;;;;;;;3.80;3.50;;;12.40;99.90;;;;;;5114394;28;20426;-73
2021/05/27 05:42:17;;;;;;;4.30;3.43;;;12.30;99.90;;;;;;5113852;28;20435;-73
2021/05/27 05:44:42;;;;;;;3.93;3.10;;;12.30;99.90;;;;;;5098357;28;20174;-73
2021/05/27 05:47:08;;;;;;;2.97;2.63;;;12.20;99.90;;;;;;5093523;28;20219;-74
2021/05/27 05:49:34;;;;;;;3.90;3.60;;;12.70;99.90;;;;;;5093552;28;20198;-74
2021/05/27 05:51:59;;;;;;;3.20;2.90;;;12.70;99.90;;;;;;5093629;28;20201;-74
2021/05/27 05:54:25;;;;;;;3.67;3.37;;;12.50;99.90;;;;;;5093311;28;20205;-74
2021/05/27 05:56:50;;;;;;;4.27;2.93;;;12.50;99.90;;;;;;5093218;28;20166;-73
2021/05/27 05:59:16;;;;;;;4.20;3.70;;;12.60;99.90;;;;;;5093249;28;20810;-73
2021/05/27 06:01:41;;;;;;;3.60;3.30;;;12.60;99.90;;;;;;5092869;28;20178;-73
2021/05/27 06:04:07;;;;;;;2.97;2.30;;;12.60;99.90;;;;;;5092991;28;20213;-74
2021/05/27 06:06:32;;;;;;;3.30;2.40;;;12.60;99.90;;;;;;5093026;28;20169;-74
2021/05/27 06:08:58;;;;;;;5.00;2.70;;;12.60;99.90;;;;;;5093009;28;20246;-73
2021/05/27 06:11:24;;;;;;;5.47;3.20;;;12.50;99.90;;;;;;5089953;28;20177;-73
2021/05/27 06:13:49;;;;;;;3.23;2.90;;;12.40;99.90;;;;;;5093211;28;20285;-73
2021/05/27 06:16:15;;;;;;;7.00;2.50;;;12.60;99.90;;;;;;5093112;28;20411;-73
2021/05/27 06:18:40;;;;;;;3.80;3.50;;;12.60;99.90;;;;;;5093452;28;20235;-74
2021/05/27 06:21:06;;;;;;;5.00;3.13;;;12.70;99.90;;;;;;5099474;28;20181;-74
2021/05/27 06:23:32;;;;;;;3.20;3.00;;;12.70;99.90;;;;;;5105080;28;20380;-74
2021/05/27 06:25:57;;;;;;;3.03;2.83;;;12.80;99.90;;;;;;5112213;28;20230;-74
2021/05/27 06:28:23;;;;;;;3.37;3.17;;;12.90;99.90;;;;;;5112634;28;20658;-74
2021/05/27 06:30:48;;;;;;;3.27;3.07;;;12.80;99.90;;;;;;5113252;28;20248;-74
2021/05/27 06:33:14;;;;;;;3.30;2.87;;;12.90;99.90;;;;;;5113071;28;20181;-74
2021/05/27 06:35:40;;;;;;;3.90;3.53;;;12.70;99.90;;;;;;5113193;28;20173;-74
2021/05/27 06:38:07;;;;;;;3.17;2.77;;;12.80;99.90;;;;;;5112896;28;20570;-74
2021/05/27 06:40:33;;;;;;;4.00;3.27;;;12.90;99.90;;;;;;5113028;28;20406;-74
2021/05/27 06:42:58;;;;;;;4.27;3.07;;;12.80;99.90;;;;;;5113239;28;20407;-74
2021/05/27 06:45:25;;;;;;;3.60;3.30;;;13.00;99.90;;;;;;5113154;28;20171;-74
2021/05/27 06:47:51;;;;;;;5.23;3.43;;;12.70;99.90;;;;;;5113055;28;20169;-73
2021/05/27 06:50:32;;;;;;;8.73;3.87;;;12.70;99.90;;;;;;5112796;28;21067;-73
2021/05/27 06:53:02;;;;;;;4.83;3.50;;;12.40;99.90;;;;;;5093453;28;20924;-73
2021/05/27 06:55:28;;;;;;;4.57;4.17;;;12.40;99.90;;;;;;5071044;28;20552;-73
2021/05/27 06:57:54;;;;;;;3.97;3.30;;;12.40;99.90;;;;;;5072760;28;20954;-73
2021/05/27 07:00:20;;;;;;;5.20;3.30;;;12.50;99.90;;;;;;5092807;28;20431;-73
2021/05/27 07:02:47;;;;;;;3.50;3.13;;;12.60;99.90;;;;;;5092821;28;20170;-73
2021/05/27 07:05:13;;;;;;;3.87;3.50;;;12.80;99.90;;;;;;5092453;28;20411;-73
2021/05/27 07:07:39;;;;;;;8.53;3.83;;;12.70;99.90;;;;;;5092832;28;20482;-74
2021/05/27 07:10:05;;;;;;;8.73;3.93;;;13.00;99.90;;;;;;5090128;28;20522;-74
2021/05/27 07:12:32;;;;;;;4.93;3.87;;;13.20;99.90;;;;;;5098433;28;20173;-74
2021/05/27 07:14:58;;;;;;;3.40;2.97;;;13.10;99.90;;;;;;5092158;28;20443;-73
2021/05/27 07:17:23;;;;;;;4.33;3.37;;;13.20;99.90;;;;;;5092192;28;20412;-73
2021/05/27 07:19:51;;;;;;;2.90;2.63;;;13.40;99.90;;;;;;5092851;28;20716;-73
2021/05/27 07:22:17;;;;;;;3.10;2.80;;;13.20;99.90;;;;;;5092648;28;20166;-73
2021/05/27 07:24:43;;;;;;;3.20;2.83;;;13.20;99.90;;;;;;5093502;28;20396;-73
2021/05/27 07:27:09;;;;;;;4.43;2.83;;;13.10;99.90;;;;;;5078085;28;20174;-74
2021/05/27 07:29:34;;;;;;;2.77;2.57;;;12.90;99.90;;;;;;5075873;28;20451;-73
2021/05/27 07:32:01;;;;;;;2.60;2.40;;;12.80;99.90;;;;;;5093317;28;20165;-73
2021/05/27 07:34:26;;;;;;;3.10;2.80;;;12.80;99.90;;;;;;5086516;28;20264;-73
2021/05/27 07:36:52;;;;;;;2.97;2.53;;;12.90;99.90;;;;;;5092049;28;20487;-73
2021/05/27 07:39:17;;;;;;;1.90;1.70;;;12.90;99.90;;;;;;5082087;28;20703;-73
2021/05/27 07:41:43;;;;;;;2.77;1.67;;;13.10;99.90;;;;;;5078509;28;20177;-73
2021/05/27 07:44:08;;;;;;;3.23;2.13;;;13.10;99.90;;;;;;5090754;28;20180;-73
2021/05/27 07:46:33;;;;;;;2.73;2.23;;;13.20;99.90;;;;;;5080179;28;20169;-73
2021/05/27 07:48:59;;;;;;;2.37;1.67;;;13.40;99.90;;;;;;5089095;28;20648;-72
2021/05/27 07:51:24;;;;;;;1.73;1.63;;;13.70;99.90;;;;;;5082494;28;20240;-74
2021/05/27 07:53:50;;;;;;;1.90;1.70;;;14.00;99.90;;;;;;5091749;28;20279;-74
2021/05/27 07:56:15;;;;;;;2.07;1.87;;;14.10;99.90;;;;;;5090951;28;20173;-77
2021/05/27 07:58:41;;;;;;;2.37;2.17;;;14.10;99.90;;;;;;5091364;28;20213;-74
2021/05/27 08:01:07;;;;;;;4.27;2.17;;;14.00;99.90;;;;;;5085391;28;20552;-74
2021/05/27 08:03:33;;;;;;;2.33;2.13;;;14.00;99.90;;;;;;5088905;28;20174;-74
2021/05/27 08:05:58;;;;;;;2.53;2.20;;;13.80;99.90;;;;;;5074908;28;20468;-73
2021/05/27 08:08:24;;;;;;;3.47;2.10;;;13.60;99.90;;;;;;5076370;28;20185;-74
2021/05/27 08:10:49;;;;;;;3.63;2.27;;;13.50;99.90;;;;;;5078629;28;20193;-75
2021/05/27 08:13:15;;;;;;;2.20;2.00;;;13.40;99.90;;;;;;5072776;28;20589;-75
2021/05/27 08:15:48;;;;;;;2.17;1.90;;;13.60;99.90;;;;;;5091951;28;20177;-74
2021/05/27 08:18:21;;;;;;;2.00;1.90;;;13.70;99.90;;;;;;5079646;28;20428;-75
2021/05/27 08:20:47;;;;;;;2.70;1.73;;;13.70;99.90;;;;;;5083079;28;20422;-74
2021/05/27 08:23:15;;;;;;;2.43;2.13;;;14.00;99.90;;;;;;5112950;28;20490;-74
2021/05/27 08:25:44;;;;;;;1.80;1.40;;;14.00;99.90;;;;;;5108090;28;20298;-74
2021/05/27 08:28:10;;;;;;;1.57;1.47;;;14.30;99.90;;;;;;5071684;28;20397;-73
2021/05/27 08:30:35;;;;;;;1.60;1.50;;;13.80;99.90;;;;;;5069803;28;21182;-74
2021/05/27 08:33:01;;;;;;;1.90;1.80;;;13.50;99.90;;;;;;5065930;28;20182;-73
2021/05/27 08:35:26;;;;;;;5.00;2.47;;;13.50;99.90;;;;;;5076231;28;20262;-73
2021/05/27 08:37:52;;;;;;;3.70;2.57;;;13.50;99.90;;;;;;5075686;28;20178;-74
2021/05/27 08:40:17;;;;;;;2.93;2.30;;;13.50;99.90;;;;;;5091169;28;20225;-73
2021/05/27 08:42:43;;;;;;;2.40;1.90;;;13.90;99.90;;;;;;5089011;28;20570;-74
2021/05/27 08:45:09;;;;;;;2.37;2.13;;;13.60;99.90;;;;;;5071653;28;20590;-75
2021/05/27 08:47:35;;;;;;;2.63;1.83;;;13.30;99.90;;;;;;5071525;28;20162;-75
2021/05/27 08:50:04;;;;;;;4.00;3.70;;;13.40;99.90;;;;;;5071548;28;20850;-75
2021/05/27 08:52:30;;;;;;;3.13;2.93;;;13.60;99.90;;;;;;5073921;28;20405;-75
2021/05/27 08:54:56;;;;;;;2.50;2.30;;;13.60;99.90;;;;;;5095521;28;20979;-75
2021/05/27 08:57:21;;;;;;;2.20;2.10;;;13.40;99.90;;;;;;5107167;28;20193;-75
2021/05/27 08:59:47;;;;;;;3.40;3.10;;;13.20;99.90;;;;;;5092187;28;20431;-75
2021/05/27 09:02:13;;;;;;;2.63;2.43;;;13.00;99.90;;;;;;5075345;28;20188;-73
2021/05/27 09:04:39;;;;;;;2.83;2.63;;;12.70;99.90;;;;;;5076485;28;20170;-73
2021/05/27 09:07:06;;;;;;;4.17;2.40;;;12.80;99.90;;;;;;5079339;28;20435;-74
2021/05/27 09:09:55;;;;;;;3.33;3.13;;;13.20;99.90;;;;;;5074580;28;20912;-74
2021/05/27 09:12:32;;;;;;;4.07;3.70;;;13.10;99.90;;;;;;5074249;28;20396;-74
2021/05/27 09:14:59;;;;;;;5.60;4.77;;;13.10;99.90;;;;;;5075099;28;20542;-73
2021/05/27 09:17:25;;;;;;;4.47;4.07;;;12.80;99.90;;;;;;5082163;28;20416;-75
2021/05/27 09:20:15;;;;;;;6.30;4.97;;;12.90;99.90;;;;;;5089895;28;20437;-73
2021/05/27 09:22:42;;;;;;;4.97;4.47;;;12.90;99.90;;;;;;5073744;28;20404;-73
2021/05/27 09:25:21;;;;;;;3.43;2.80;;;12.80;99.90;;;;;;5073616;28;20983;-74
2021/05/27 09:27:48;;;;;;;5.53;2.30;;;12.90;99.90;;;;;;5073650;28;20408;-74
2021/05/27 09:30:15;;;;;;;1.90;1.80;;;12.90;99.90;;;;;;5073800;28;20416;-74
2021/05/27 09:32:48;;;;;;;3.13;2.17;;;13.20;99.90;;;;;;5086015;28;20407;-74
2021/05/27 09:35:15;;;;;;;2.37;2.17;;;13.80;99.90;;;;;;5092839;28;20550;-74
2021/05/27 09:37:49;;;;;;;3.00;1.90;;;14.70;99.90;;;;;;5077106;28;20439;-74
2021/05/27 09:40:31;;;;;;;1.80;1.50;;;15.00;99.90;;;;;;5092178;28;20425;-74
2021/05/27 09:42:59;;;;;;;5.47;2.63;;;14.90;99.90;;;;;;5080004;28;20932;-74
2021/05/27 09:45:31;;;;;;;4.90;1.40;;;15.10;99.90;;;;;;5081351;28;20449;-74
2021/05/27 09:47:57;;;;;;;2.07;1.80;;;15.40;99.90;;;;;;5079920;28;20531;-75
2021/05/27 09:50:33;;;;;;;2.37;1.70;;;16.20;99.90;;;;;;5082251;28;20465;-75
2021/05/27 09:53:12;;;;;;;1.43;1.10;;;17.10;99.90;;;;;;5080715;28;20774;-74
2021/05/27 09:55:38;;;;;;;3.10;1.60;;;16.80;99.90;;;;;;5109804;28;20409;-75
2021/05/27 09:58:12;;;;;;;1.20;1.00;;;16.40;99.90;;;;;;5104398;28;20638;-75
2021/05/27 10:00:40;;;;;;;6.70;4.73;;;16.40;99.90;;;;;;5095600;28;20170;-72
2021/05/27 10:03:31;;;;;;;4.33;3.60;;;16.40;99.90;;;;;;5081678;28;20777;-72
2021/05/27 10:06:00;;;;;;;2.33;1.33;;;16.40;99.90;;;;;;5082221;28;20497;-73
2021/05/27 10:08:26;;;;;;;7.77;5.80;;;16.50;99.90;;;;;;5081433;28;20411;-72
2021/05/27 10:10:52;;;;;;;6.00;4.40;;;16.10;99.90;;;;;;5082674;28;20867;-73
2021/05/27 10:13:23;;;;;;;2.20;1.23;;;16.10;99.90;;;;;;5081049;28;20863;-72
2021/05/27 10:15:49;;;;;;;1.73;0.90;;;15.90;99.90;;;;;;5082593;28;20418;-72
2021/05/27 10:18:18;;;;;;;1.80;1.07;;;15.90;99.90;;;;;;5082125;28;20407;-73
2021/05/27 10:20:44;;;;;;;2.20;1.20;;;15.70;99.90;;;;;;5081171;28;20173;-72
2021/05/27 10:23:10;;;;;;;1.50;1.20;;;16.10;99.90;;;;;;5081432;28;20409;-73
2021/05/27 10:25:36;;;;;;;0.93;0.80;;;16.20;99.90;;;;;;5082059;28;20415;-72
2021/05/27 10:28:07;;;;;;;1.33;0.90;;;16.30;99.90;;;;;;5082713;28;20164;-72
2021/05/27 10:30:38;;;;;;;1.13;1.07;;;16.30;99.90;;;;;;5077870;28;20516;-72
2021/05/27 10:33:06;;;;;;;2.30;1.00;;;16.60;99.90;;;;;;5088415;28;20930;-72
2021/05/27 10:35:54;;;;;;;0.90;0.90;;;16.80;99.90;;;;;;5061756;28;20466;-72
2021/05/27 10:41:12;;;;;;;0.90;0.80;;;16.20;99.90;;;;;;5092551;28;20751;-72
2021/05/27 10:44:04;;;;;;;0.70;0.70;;;16.00;99.90;;;;;;5098084;28;20800;-72
2021/05/27 10:46:53;;;;;;;1.50;1.10;;;16.10;99.90;;;;;;5093935;28;20420;-73
2021/05/27 10:49:41;;;;;;;1.30;1.20;;;16.40;99.90;;;;;;5091502;28;20458;-73
2021/05/27 10:52:24;;;;;;;2.20;1.10;;;16.50;99.90;;;;;;5092451;28;20409;-73
2021/05/27 10:54:50;;;;;;;1.00;0.90;;;16.60;99.90;;;;;;5090958;28;20569;-73
2021/05/27 10:57:40;;;;;;;1.00;0.90;;;16.90;99.90;;;;;;5092115;28;20435;-73
2021/05/27 11:00:18;;;;;;;1.10;0.90;;;17.00;99.90;;;;;;5078944;28;20207;-73
2021/05/27 11:02:43;;;;;;;1.90;1.30;;;16.70;99.90;;;;;;5096552;28;20928;-73
2021/05/27 11:05:17;;;;;;;1.57;1.20;;;16.30;99.90;;;;;;5099265;28;20428;-74
2021/05/27 11:08:16;;;;;;;1.07;0.97;;;16.10;99.90;;;;;;5071111;28;20179;-73
2021/05/27 11:10:41;;;;;;;1.10;1.00;;;16.10;99.90;;;;;;5076073;28;20412;-73
2021/05/27 11:13:07;;;;;;;1.87;1.33;;;16.30;99.90;;;;;;5073871;28;20401;-73
2021/05/27 11:15:32;;;;;;;1.77;1.20;;;16.60;99.90;;;;;;5075983;28;20184;-74
2021/05/27 11:18:07;;;;;;;1.50;1.33;;;16.60;99.90;;;;;;5072699;28;20177;-73
2021/05/27 11:20:34;;;;;;;1.60;1.30;;;17.20;99.90;;;;;;5081005;28;20191;-74
2021/05/27 11:23:17;;;;;;;1.40;1.30;;;17.60;99.90;;;;;;5103793;28;20452;-74
2021/05/27 11:25:43;;;;;;;0.90;0.83;;;17.10;99.90;;;;;;5100475;28;20824;-73
2021/05/27 11:28:13;;;;;;;1.47;0.90;;;16.50;99.90;;;;;;5092097;28;20402;-73
2021/05/27 11:30:41;;;;;;;1.20;1.10;;;16.30;99.90;;;;;;5092244;28;20155;-73
2021/05/27 11:33:13;;;;;;;1.00;0.87;;;16.30;99.90;;;;;;5085996;28;20583;-74
2021/05/27 11:35:38;;;;;;;1.10;1.00;;;16.40;99.90;;;;;;5076424;28;20422;-74
2021/05/27 11:38:09;;;;;;;0.90;0.90;;;16.60;99.90;;;;;;5073089;28;20522;-73
2021/05/27 11:40:46;;;;;;;1.20;0.93;;;16.50;99.90;;;;;;5100167;28;20167;-74
2021/05/27 11:43:13;;;;;;;1.20;1.10;;;16.60;99.90;;;;;;5091771;28;20807;-74
2021/05/27 11:45:41;;;;;;;1.27;0.90;;;16.40;99.90;;;;;;5084249;28;20938;-74
2021/05/27 11:48:17;;;;;;;0.83;0.70;;;16.60;99.90;;;;;;5082927;28;20422;-74
2021/05/27 11:50:43;;;;;;;0.90;0.80;;;16.90;99.90;;;;;;5083168;28;20423;-73
2021/05/27 11:53:09;;;;;;;1.00;0.90;;;16.80;99.90;;;;;;5090286;28;20407;-72
2021/05/27 11:55:35;;;;;;;1.00;0.90;;;17.20;99.90;;;;;;5091523;28;20262;-73
2021/05/27 11:58:01;;;;;;;2.00;0.80;;;17.10;99.90;;;;;;5091394;28;20431;-72
2021/05/27 12:00:27;;;;;;;2.20;0.83;;;16.70;99.90;;;;;;5078719;28;20507;-73
2021/05/27 12:02:54;;;;;;;2.20;1.43;;;16.40;99.90;;;;;;5071297;28;20837;-74
2021/05/27 12:05:30;;;;;;;1.50;0.87;;;16.00;99.90;;;;;;5096578;28;20165;-73
2021/05/27 12:08:07;;;;;;;1.10;1.00;;;15.40;99.90;;;;;;5072102;28;20414;-73
2021/05/27 12:10:59;;;;;;;1.97;0.80;;;15.10;99.90;;;;;;5081611;28;20883;-73
2021/05/27 12:13:24;;;;;;;0.80;0.80;;;14.90;99.90;;;;;;5087562;28;20424;-73
2021/05/27 12:15:51;;;;;;;0.80;0.80;;;14.80;99.90;;;;;;5092075;28;20953;-73
2021/05/27 12:18:19;;;;;;;0.67;0.60;;;15.10;99.90;;;;;;5092381;28;20211;-73
2021/05/27 12:20:50;;;;;;;1.20;0.87;;;15.40;99.90;;;;;;5081703;28;20910;-73
2021/05/27 12:23:17;;;;;;;2.07;1.00;;;15.90;99.90;;;;;;5091115;28;20829;-72
2021/05/27 12:25:45;;;;;;;1.37;1.03;;;16.10;99.90;;;;;;5089913;28;20434;-72
2021/05/27 12:28:18;;;;;;;5.70;1.07;;;16.30;99.90;;;;;;5093957;28;20401;-72
2021/05/27 12:30:46;;;;;;;1.40;0.90;;;16.10;99.90;;;;;;5088279;28;20407;-73
2021/05/27 12:33:20;;;;;;;1.67;1.57;;;16.30;99.90;;;;;;5091657;28;20415;-72
2021/05/27 12:35:46;;;;;;;1.83;1.40;;;16.60;99.90;;;;;;5095263;28;20803;-72
2021/05/27 12:38:29;;;;;;;1.20;1.00;;;16.60;99.90;;;;;;5089863;28;20408;-73
2021/05/27 12:41:02;;;;;;;2.70;1.10;;;16.70;99.90;;;;;;5083639;28;20178;-72
2021/05/27 12:43:40;;;;;;;1.50;0.90;;;16.70;99.90;;;;;;5100695;28;20496;-73
2021/05/27 12:46:08;;;;;;;3.33;1.37;;;17.00;99.90;;;;;;5088402;28;20412;-73
2021/05/27 12:48:50;;;;;;;3.63;1.07;;;16.90;99.90;;;;;;5087664;28;20484;-73
2021/05/27 12:51:16;;;;;;;0.93;0.83;;;16.70;99.90;;;;;;5094721;28;20759;-73
2021/05/27 12:53:53;;;;;;;1.67;0.90;;;16.40;99.90;;;;;;5087818;28;20557;-73
2021/05/27 12:56:22;;;;;;;1.43;1.10;;;16.40;99.90;;;;;;5074231;28;20850;-73
2021/05/27 12:58:50;;;;;;;1.60;1.17;;;16.70;99.90;;;;;;5078980;28;20448;-74
2021/05/27 13:01:29;;;;;;;1.10;0.90;;;16.90;99.90;;;;;;5085454;28;20500;-73
2021/05/27 13:03:54;;;;;;;1.23;1.13;;;16.60;99.90;;;;;;5084094;28;20771;-73
2021/05/27 13:06:31;;;;;;;1.23;1.10;;;16.40;99.90;;;;;;5083620;28;20428;-73